Time;durP1;ratioP1;P1;durP2;ratioP2;P2;SDS_P1;SDS_P2;PMS_P1;PMS_P2;Temp;Humidity;BMP_temperature;BMP_pressure;BME280_temperature;BME280_humidity;BME280_pressure;Samples;Min_cycle;Max_cycle;Signal;HPM_P1;HPM_P2
2021/08/01 00:00:10;;;;;;;7.27;4.00;;;24.80;99.90;;;;;;6186752;23;20565;-67
2021/08/01 00:02:36;;;;;;;5.00;3.97;;;24.80;99.90;;;;;;6187121;23;20544;-71
2021/08/01 00:05:03;;;;;;;7.23;4.40;;;24.70;99.90;;;;;;6187304;23;20515;-70
2021/08/01 00:07:28;;;;;;;5.07;3.80;;;24.70;99.90;;;;;;6186905;23;20234;-67
2021/08/01 00:10:00;;;;;;;5.13;3.40;;;24.70;99.90;;;;;;6187191;23;20428;-66
2021/08/01 00:12:26;;;;;;;7.43;4.00;;;24.60;99.90;;;;;;6160445;23;20703;-66
2021/08/01 00:14:53;;;;;;;6.90;4.00;;;24.60;99.90;;;;;;6187054;23;20497;-66
2021/08/01 00:17:19;;;;;;;6.20;4.40;;;24.60;99.90;;;;;;6186792;23;20805;-71
2021/08/01 00:19:44;;;;;;;5.77;3.60;;;24.60;99.90;;;;;;6187081;23;20415;-66
2021/08/01 00:22:10;;;;;;;5.80;3.73;;;24.50;99.90;;;;;;6186653;23;20156;-70
2021/08/01 00:24:36;;;;;;;6.20;4.17;;;24.50;99.90;;;;;;6160371;23;20180;-66
2021/08/01 00:27:02;;;;;;;6.13;3.97;;;24.40;99.90;;;;;;6186699;23;20458;-71
2021/08/01 00:29:28;;;;;;;4.93;4.40;;;24.40;99.90;;;;;;6186435;23;20188;-67
2021/08/01 00:31:53;;;;;;;7.30;4.90;;;24.40;99.90;;;;;;6186473;23;20416;-71
2021/08/01 00:34:19;;;;;;;6.33;4.30;;;24.30;99.90;;;;;;6186353;23;20191;-66
2021/08/01 00:36:44;;;;;;;4.73;3.73;;;24.30;99.90;;;;;;6160259;23;20163;-68
2021/08/01 00:39:11;;;;;;;9.53;6.30;;;24.30;99.90;;;;;;6186315;23;20202;-70
2021/08/01 00:41:37;;;;;;;6.30;3.70;;;24.20;99.90;;;;;;6186583;23;20149;-71
2021/08/01 00:44:03;;;;;;;4.93;3.53;;;24.20;99.90;;;;;;6186758;23;20418;-66
2021/08/01 00:46:29;;;;;;;6.37;4.37;;;24.20;99.90;;;;;;6186631;23;20213;-66
2021/08/01 00:48:55;;;;;;;5.50;4.10;;;24.10;99.90;;;;;;6186272;23;20468;-70
2021/08/01 00:51:20;;;;;;;5.73;4.90;;;24.10;99.90;;;;;;6160070;23;20659;-66
2021/08/01 00:53:47;;;;;;;6.03;3.80;;;24.10;99.90;;;;;;6186378;23;20425;-71
2021/08/01 00:56:15;;;;;;;5.03;4.30;;;24.10;99.90;;;;;;6160028;23;20543;-70
2021/08/01 00:58:41;;;;;;;4.67;3.50;;;24.00;99.90;;;;;;6159652;23;20456;-70
2021/08/01 01:01:13;;;;;;;5.30;4.43;;;24.00;99.90;;;;;;6186378;23;20382;-70
2021/08/01 01:04:13;;;;;;;5.53;4.13;;;24.00;99.90;;;;;;6159794;23;20244;-71
2021/08/01 01:07:09;;;;;;;6.30;5.00;;;24.00;99.90;;;;;;6186445;23;20476;-66
2021/08/01 01:09:40;;;;;;;6.80;4.30;;;24.00;99.90;;;;;;6186585;23;20416;-66
2021/08/01 01:12:11;;;;;;;9.10;4.03;;;24.00;99.90;;;;;;6186178;23;20482;-66
2021/08/01 01:14:44;;;;;;;6.30;4.07;;;23.90;99.90;;;;;;6186628;23;20726;-70
2021/08/01 01:17:13;;;;;;;5.00;3.90;;;23.90;99.90;;;;;;6159937;23;20755;-70
2021/08/01 01:20:17;;;;;;;4.57;3.93;;;23.90;99.90;;;;;;6159966;23;20898;-66
2021/08/01 01:23:09;;;;;;;5.20;4.20;;;23.80;99.90;;;;;;6066499;23;20379;-66
2021/08/01 01:26:01;;;;;;;6.30;4.20;;;23.80;99.90;;;;;;6066469;23;20838;-66
2021/08/01 01:28:46;;;;;;;4.60;4.00;;;23.80;99.90;;;;;;6164595;23;20385;-70
2021/08/01 01:31:29;;;;;;;10.17;5.57;;;23.80;99.90;;;;;;6126067;23;20495;-67
2021/08/01 01:34:16;;;;;;;5.20;4.40;;;23.80;99.90;;;;;;6159761;23;20432;-70
2021/08/01 01:36:45;;;;;;;6.47;4.50;;;23.70;99.90;;;;;;6186347;23;20762;-70
2021/08/01 01:39:11;;;;;;;8.70;4.13;;;23.70;99.90;;;;;;6159705;23;20430;-70
2021/08/01 01:41:42;;;;;;;3.83;3.20;;;23.70;99.90;;;;;;6186191;23;20468;-66
2021/08/01 01:44:09;;;;;;;7.03;4.47;;;23.70;99.90;;;;;;6159715;23;20903;-66
2021/08/01 01:46:36;;;;;;;7.03;4.10;;;23.60;99.90;;;;;;6186125;23;20377;-70
2021/08/01 01:49:04;;;;;;;7.47;4.47;;;23.60;99.90;;;;;;6160302;23;20760;-66
2021/08/01 01:51:32;;;;;;;4.27;3.87;;;23.60;99.90;;;;;;6188073;23;20438;-66
2021/08/01 01:53:58;;;;;;;4.80;4.40;;;23.50;99.90;;;;;;6188146;23;20408;-70
2021/08/01 01:56:25;;;;;;;6.63;5.27;;;23.50;99.90;;;;;;6161738;23;20442;-66
2021/08/01 01:58:52;;;;;;;4.40;3.90;;;23.40;99.90;;;;;;6161487;23;20206;-66
2021/08/01 02:01:17;;;;;;;8.53;4.27;;;23.40;99.90;;;;;;6188122;23;20361;-66
2021/08/01 02:03:43;;;;;;;5.83;4.10;;;23.40;99.90;;;;;;6188041;23;20376;-70
2021/08/01 02:06:09;;;;;;;6.87;4.63;;;23.30;99.90;;;;;;6187956;23;20154;-66
2021/08/01 02:08:57;;;;;;;7.13;4.20;;;23.30;99.90;;;;;;6161284;23;20163;-66
2021/08/01 02:11:26;;;;;;;5.07;4.00;;;23.30;99.90;;;;;;6161403;23;20214;-70
2021/08/01 02:14:09;;;;;;;10.43;5.13;;;23.30;99.90;;;;;;6187707;23;20713;-66
2021/08/01 02:16:39;;;;;;;5.90;3.70;;;23.30;99.90;;;;;;6187871;23;20439;-66
2021/08/01 02:19:08;;;;;;;5.60;4.80;;;23.20;99.90;;;;;;6187505;23;20445;-66
2021/08/01 02:21:34;;;;;;;8.47;4.50;;;23.20;99.90;;;;;;6186049;23;20750;-70
2021/08/01 02:24:02;;;;;;;4.60;4.10;;;23.20;99.90;;;;;;6159159;23;20428;-66
2021/08/01 02:26:29;;;;;;;8.53;4.33;;;23.10;99.90;;;;;;6186286;23;20700;-66
2021/08/01 02:28:55;;;;;;;6.47;4.20;;;23.10;99.90;;;;;;6186481;23;20412;-66
2021/08/01 02:31:21;;;;;;;7.10;4.10;;;23.10;99.90;;;;;;6186341;23;20519;-66
2021/08/01 02:33:49;;;;;;;5.20;3.90;;;23.10;99.90;;;;;;6159713;23;20179;-66
2021/08/01 02:36:17;;;;;;;4.70;4.23;;;23.00;99.90;;;;;;6187168;23;20372;-66
2021/08/01 02:38:45;;;;;;;5.67;4.50;;;23.00;99.90;;;;;;6187526;23;20384;-70
2021/08/01 02:41:33;;;;;;;7.40;4.83;;;23.00;99.90;;;;;;6187633;23;20388;-71
2021/08/01 02:44:03;;;;;;;8.40;6.03;;;23.00;99.90;;;;;;6187608;23;20413;-66
2021/08/01 02:46:30;;;;;;;10.10;5.00;;;22.90;99.90;;;;;;6187707;23;20751;-66
2021/08/01 02:49:00;;;;;;;6.63;5.43;;;22.90;99.90;;;;;;6187610;23;20404;-66
2021/08/01 02:51:28;;;;;;;7.90;5.10;;;22.90;99.90;;;;;;6187474;23;20420;-70
2021/08/01 02:53:56;;;;;;;9.27;6.13;;;22.90;99.90;;;;;;6187578;23;20491;-71
2021/08/01 02:56:25;;;;;;;8.73;6.50;;;22.90;99.90;;;;;;6187519;23;20380;-70
2021/08/01 02:58:52;;;;;;;9.37;5.83;;;22.90;99.90;;;;;;6160769;23;20929;-70
2021/08/01 03:01:18;;;;;;;7.90;6.20;;;22.90;99.90;;;;;;6160128;23;20372;-70
2021/08/01 03:03:45;;;;;;;12.73;6.80;;;22.90;99.90;;;;;;6187396;23;20398;-67
2021/08/01 03:06:14;;;;;;;10.37;6.37;;;22.90;99.90;;;;;;6187383;23;20368;-70
2021/08/01 03:08:39;;;;;;;10.30;7.13;;;22.90;99.90;;;;;;6187485;23;20392;-66
2021/08/01 03:11:05;;;;;;;8.90;6.13;;;22.90;99.90;;;;;;6160754;23;20448;-66
2021/08/01 03:13:31;;;;;;;7.93;6.40;;;22.90;99.90;;;;;;6187408;23;20859;-66
2021/08/01 03:19:18;;;;;;;8.13;6.10;;;22.90;99.90;;;;;;6187378;23;20237;-70
2021/08/01 03:21:44;;;;;;;6.60;5.40;;;22.90;99.90;;;;;;6187239;23;20404;-67
2021/08/01 03:24:10;;;;;;;9.03;6.43;;;23.00;99.90;;;;;;6187211;23;20178;-70
2021/08/01 03:26:35;;;;;;;7.70;6.53;;;23.00;99.90;;;;;;6161029;23;20174;-66
2021/08/01 03:29:01;;;;;;;9.13;6.67;;;23.00;99.90;;;;;;6187096;23;20230;-70
2021/08/01 03:31:26;;;;;;;7.57;6.43;;;23.00;99.90;;;;;;6187463;23;20194;-70
2021/08/01 03:33:52;;;;;;;7.97;6.80;;;23.00;99.90;;;;;;6187143;23;20204;-70
2021/08/01 03:36:17;;;;;;;6.60;6.00;;;23.00;99.90;;;;;;6187383;23;20158;-71
2021/08/01 03:38:43;;;;;;;7.90;6.40;;;23.00;99.90;;;;;;6187197;23;20615;-66
2021/08/01 03:41:08;;;;;;;7.10;5.60;;;23.10;99.90;;;;;;6187085;23;20162;-66
2021/08/01 03:43:34;;;;;;;7.83;6.00;;;23.10;99.90;;;;;;6187020;23;20161;-70
2021/08/01 03:46:00;;;;;;;7.90;5.83;;;23.10;99.90;;;;;;6187246;23;20185;-71
2021/08/01 03:48:25;;;;;;;10.67;5.67;;;23.00;99.90;;;;;;6160465;23;20155;-70
2021/08/01 03:50:52;;;;;;;6.73;6.00;;;23.00;99.90;;;;;;6186783;23;20198;-66
2021/08/01 03:53:18;;;;;;;9.00;6.80;;;23.00;99.90;;;;;;6186938;23;20146;-66
2021/08/01 03:55:44;;;;;;;7.87;6.50;;;23.00;99.90;;;;;;6187097;23;20416;-70
2021/08/01 03:58:09;;;;;;;7.83;5.43;;;23.00;99.90;;;;;;6186970;23;20221;-70
2021/08/01 04:00:35;;;;;;;7.40;6.57;;;23.00;99.90;;;;;;6186814;23;20683;-71
2021/08/01 04:03:00;;;;;;;6.83;6.00;;;23.00;99.90;;;;;;6186880;23;20181;-66
2021/08/01 04:05:26;;;;;;;8.17;6.20;;;23.00;99.90;;;;;;6186729;23;20182;-70
2021/08/01 04:07:51;;;;;;;7.00;6.30;;;23.00;99.90;;;;;;6160428;23;20205;-66
2021/08/01 04:10:17;;;;;;;8.87;6.27;;;23.00;99.90;;;;;;6186706;23;20207;-66
2021/08/01 04:12:42;;;;;;;6.90;5.87;;;23.00;99.90;;;;;;6186516;23;20194;-70
2021/08/01 04:15:09;;;;;;;8.33;7.03;;;23.00;99.90;;;;;;6186373;23;20237;-66
2021/08/01 04:17:34;;;;;;;7.17;6.07;;;23.00;99.90;;;;;;6186786;23;20151;-67
2021/08/01 04:20:00;;;;;;;7.30;6.23;;;23.10;99.90;;;;;;6186580;23;20388;-67
2021/08/01 04:22:26;;;;;;;8.53;7.20;;;23.10;99.90;;;;;;6160543;23;20166;-66
2021/08/01 04:24:52;;;;;;;6.93;6.23;;;23.10;99.90;;;;;;6186582;23;20871;-66
2021/08/01 04:27:18;;;;;;;8.23;6.20;;;23.10;99.90;;;;;;6160419;23;20167;-70
2021/08/01 04:29:43;;;;;;;10.17;6.77;;;23.10;99.90;;;;;;6186597;23;20877;-70
2021/08/01 04:32:09;;;;;;;8.80;7.00;;;23.20;99.90;;;;;;6186393;23;20190;-66
2021/08/01 04:34:34;;;;;;;9.23;6.90;;;23.20;99.90;;;;;;6186439;23;20233;-70
2021/08/01 04:37:00;;;;;;;9.40;7.00;;;23.30;99.90;;;;;;6187042;23;20281;-67
2021/08/01 04:39:26;;;;;;;7.70;6.90;;;23.30;99.90;;;;;;6186466;23;20170;-70
2021/08/01 04:41:52;;;;;;;7.07;6.10;;;23.40;99.90;;;;;;6186392;23;20158;-67
2021/08/01 04:44:18;;;;;;;8.73;7.30;;;23.40;99.90;;;;;;6159844;23;20696;-66
2021/08/01 04:46:43;;;;;;;8.43;6.90;;;23.50;99.90;;;;;;6186868;23;20435;-69
2021/08/01 04:49:09;;;;;;;12.10;7.47;;;23.50;99.90;;;;;;6160001;23;20183;-66
2021/08/01 04:51:34;;;;;;;8.50;7.60;;;23.60;99.90;;;;;;6186833;23;20244;-67
2021/08/01 04:54:00;;;;;;;7.60;6.13;;;23.60;99.90;;;;;;6186353;23;20174;-70
2021/08/01 04:56:25;;;;;;;7.47;6.57;;;23.70;99.90;;;;;;6186712;23;20166;-66
2021/08/01 04:58:51;;;;;;;9.10;7.43;;;23.70;99.90;;;;;;6186092;23;20202;-70
2021/08/01 05:01:17;;;;;;;9.50;7.70;;;23.80;99.90;;;;;;6186386;23;20156;-66
2021/08/01 05:03:43;;;;;;;11.40;6.83;;;23.90;99.90;;;;;;6186299;23;20158;-67
2021/08/01 05:06:10;;;;;;;8.23;7.30;;;23.90;99.90;;;;;;6186476;23;20386;-70
2021/08/01 05:08:36;;;;;;;10.27;7.97;;;24.00;99.90;;;;;;6159853;23;20160;-66
2021/08/01 05:11:01;;;;;;;9.43;7.60;;;24.10;99.90;;;;;;6186451;23;20442;-66
2021/08/01 05:13:27;;;;;;;8.13;7.33;;;24.10;99.90;;;;;;6186357;23;20383;-71
2021/08/01 05:15:53;;;;;;;9.60;7.20;;;24.20;99.90;;;;;;6186275;23;20199;-66
2021/08/01 05:18:20;;;;;;;10.67;7.87;;;24.20;99.90;;;;;;6186280;23;20162;-71
2021/08/01 05:20:46;;;;;;;9.03;8.00;;;24.30;99.90;;;;;;6159876;23;20229;-67
2021/08/01 05:23:12;;;;;;;9.97;7.63;;;24.30;99.90;;;;;;6185758;23;20374;-67
2021/08/01 05:25:37;;;;;;;8.80;7.30;;;24.40;99.90;;;;;;6186099;23;20631;-67
2021/08/01 05:28:03;;;;;;;8.40;7.30;;;24.40;99.90;;;;;;6186190;23;20149;-67
2021/08/01 05:30:29;;;;;;;8.93;8.03;;;24.50;99.90;;;;;;6186019;23;20180;-67
2021/08/01 05:32:55;;;;;;;7.00;6.30;;;24.60;99.90;;;;;;6186214;23;20404;-67
2021/08/01 05:35:20;;;;;;;7.97;6.33;;;24.60;99.90;;;;;;6186286;23;20625;-72
2021/08/01 05:37:46;;;;;;;8.20;7.40;;;24.60;99.90;;;;;;6186199;23;20232;-70
2021/08/01 05:40:12;;;;;;;7.80;6.57;;;24.70;99.90;;;;;;6185879;23;20176;-71
2021/08/01 05:42:38;;;;;;;8.50;7.00;;;24.70;99.90;;;;;;6159618;23;20400;-69
2021/08/01 05:45:06;;;;;;;7.57;6.77;;;24.80;99.90;;;;;;6185814;23;20210;-72
2021/08/01 05:47:31;;;;;;;7.43;6.60;;;24.80;99.90;;;;;;6186745;23;20415;-68
2021/08/01 05:49:57;;;;;;;8.60;7.70;;;24.90;99.90;;;;;;6186197;23;20396;-72
2021/08/01 05:52:23;;;;;;;9.63;7.60;;;24.90;99.90;;;;;;6159959;23;20261;-67
2021/08/01 05:54:53;;;;;;;9.00;7.27;;;25.00;99.90;;;;;;6186214;23;20173;-72
2021/08/01 05:57:19;;;;;;;6.70;6.10;;;25.10;99.90;;;;;;6187054;23;20449;-72
2021/08/01 05:59:44;;;;;;;7.73;7.03;;;25.10;99.90;;;;;;6185825;23;20911;-67
2021/08/01 06:02:13;;;;;;;6.97;6.37;;;25.20;99.90;;;;;;6159672;23;20227;-67
2021/08/01 06:04:39;;;;;;;6.97;6.10;;;25.30;99.90;;;;;;6186044;23;20636;-72
2021/08/01 06:07:06;;;;;;;6.93;6.23;;;25.40;99.90;;;;;;6185825;23;20395;-67
2021/08/01 06:09:32;;;;;;;7.83;6.50;;;25.40;99.90;;;;;;6159563;23;20756;-72
2021/08/01 06:11:57;;;;;;;6.70;6.10;;;25.50;99.90;;;;;;6186449;23;20442;-67
2021/08/01 06:14:23;;;;;;;7.77;7.07;;;25.60;99.90;;;;;;6185968;23;20178;-72
2021/08/01 06:16:49;;;;;;;6.60;5.90;;;25.60;99.90;;;;;;6159708;23;20212;-71
2021/08/01 06:19:14;;;;;;;6.80;6.10;;;25.70;99.90;;;;;;6185833;23;20197;-67
2021/08/01 06:21:40;;;;;;;6.60;6.07;;;25.80;99.90;;;;;;6186296;23;20259;-71
2021/08/01 06:24:06;;;;;;;6.77;6.07;;;25.80;99.90;;;;;;6185836;23;20181;-67
2021/08/01 06:26:31;;;;;;;6.80;6.10;;;25.90;99.90;;;;;;6186346;23;20212;-72
2021/08/01 06:28:57;;;;;;;6.50;5.80;;;26.00;99.90;;;;;;6185861;23;20583;-72
2021/08/01 06:31:23;;;;;;;6.60;6.03;;;26.10;99.90;;;;;;6159363;23;20194;-67
2021/08/01 06:33:48;;;;;;;5.70;5.20;;;26.20;99.90;;;;;;6183885;23;20638;-72
2021/08/01 06:36:16;;;;;;;6.10;5.60;;;26.20;99.90;;;;;;6186339;23;20162;-67
2021/08/01 06:38:44;;;;;;;6.57;5.90;;;26.30;99.90;;;;;;6187507;23;20527;-68
2021/08/01 06:41:10;;;;;;;5.73;5.10;;;26.40;99.90;;;;;;6160898;23;20491;-72
2021/08/01 06:43:36;;;;;;;6.37;5.73;;;26.50;99.90;;;;;;6160993;23;20726;-67
2021/08/01 06:46:02;;;;;;;5.73;5.00;;;26.60;99.90;;;;;;6187532;23;20416;-72
2021/08/01 06:48:27;;;;;;;6.83;5.90;;;26.70;99.90;;;;;;6161186;23;20159;-69
2021/08/01 06:50:53;;;;;;;5.67;5.07;;;26.80;99.90;;;;;;6185816;23;20472;-71
2021/08/01 06:53:19;;;;;;;6.00;5.10;;;26.90;99.90;;;;;;6185131;23;20470;-68
2021/08/01 06:55:45;;;;;;;5.33;4.83;;;27.00;99.90;;;;;;6184902;23;20410;-72
2021/08/01 06:58:11;;;;;;;5.77;5.10;;;27.10;99.90;;;;;;6158895;23;20154;-67
2021/08/01 07:00:36;;;;;;;6.23;5.37;;;27.10;99.90;;;;;;6185083;23;20579;-72
2021/08/01 07:03:03;;;;;;;6.13;5.53;;;27.20;99.90;;;;;;6185110;23;20414;-67
2021/08/01 07:05:30;;;;;;;5.20;4.70;;;27.30;99.90;;;;;;6186011;23;20196;-71
2021/08/01 07:07:56;;;;;;;6.10;5.50;;;27.40;99.90;;;;;;6187438;23;20838;-71
2021/08/01 07:10:23;;;;;;;5.47;4.97;;;27.50;99.90;;;;;;6187294;23;20392;-67
2021/08/01 07:12:49;;;;;;;6.23;5.63;;;27.60;99.90;;;;;;6187381;23;20424;-71
2021/08/01 07:15:17;;;;;;;7.17;6.10;;;27.70;99.90;;;;;;6160797;23;20447;-67
2021/08/01 07:17:43;;;;;;;5.57;5.07;;;27.80;99.90;;;;;;6187395;23;20441;-68
2021/08/01 07:20:11;;;;;;;6.40;5.80;;;27.80;99.90;;;;;;6187015;23;20401;-68
2021/08/01 07:22:37;;;;;;;6.50;5.90;;;27.90;99.90;;;;;;6187314;23;20815;-72
2021/08/01 07:25:04;;;;;;;6.53;5.90;;;28.00;99.90;;;;;;6136298;23;20436;-71
2021/08/01 07:27:30;;;;;;;5.80;5.40;;;28.10;99.90;;;;;;6187205;23;20397;-72
2021/08/01 07:29:56;;;;;;;6.90;6.20;;;28.10;99.90;;;;;;6187029;23;20400;-72
2021/08/01 07:32:22;;;;;;;5.97;5.37;;;28.20;99.90;;;;;;6186977;23;20515;-72
2021/08/01 07:34:50;;;;;;;7.00;5.37;;;28.30;99.90;;;;;;6187098;23;20502;-68
2021/08/01 07:37:19;;;;;;;6.77;6.07;;;28.40;99.90;;;;;;6187600;23;20163;-72
2021/08/01 07:39:45;;;;;;;5.77;5.27;;;28.50;99.90;;;;;;6187076;23;20425;-67
2021/08/01 07:42:11;;;;;;;5.90;5.30;;;28.50;99.90;;;;;;6187658;23;20709;-67
2021/08/01 07:44:46;;;;;;;6.77;6.17;;;28.60;99.90;;;;;;6187137;23;20898;-67
2021/08/01 07:47:16;;;;;;;6.87;6.07;;;28.70;99.90;;;;;;6187182;23;20389;-67
2021/08/01 07:49:42;;;;;;;6.20;5.70;;;28.80;99.90;;;;;;6186998;23;20456;-72
2021/08/01 07:52:08;;;;;;;6.10;5.50;;;28.90;99.90;;;;;;6187311;23;20443;-72
2021/08/01 07:54:33;;;;;;;6.13;5.53;;;29.00;99.90;;;;;;6186975;23;20858;-72
2021/08/01 07:56:59;;;;;;;5.93;5.43;;;29.00;99.90;;;;;;6187448;23;20170;-72
2021/08/01 07:59:24;;;;;;;5.67;5.17;;;29.10;99.90;;;;;;6186636;23;20197;-67
2021/08/01 08:01:50;;;;;;;6.23;5.57;;;29.10;99.90;;;;;;6187410;23;20220;-67
2021/08/01 08:04:16;;;;;;;6.63;5.20;;;29.20;99.90;;;;;;6186823;23;20205;-71
2021/08/01 08:06:41;;;;;;;6.33;5.70;;;29.30;99.90;;;;;;6160580;23;20170;-67
2021/08/01 08:09:07;;;;;;;6.33;5.80;;;29.40;99.90;;;;;;6160490;23;20185;-69
2021/08/01 08:11:33;;;;;;;6.50;6.00;;;29.60;99.90;;;;;;6187131;23;20268;-72
2021/08/01 08:13:59;;;;;;;6.30;5.77;;;29.70;99.90;;;;;;6160331;23;20183;-72
2021/08/01 08:16:24;;;;;;;5.07;4.63;;;29.80;99.90;;;;;;6160527;23;20629;-68
2021/08/01 08:18:50;;;;;;;9.03;6.47;;;29.90;99.90;;;;;;6186667;23;20395;-67
2021/08/01 08:21:17;;;;;;;6.80;6.20;;;30.00;99.90;;;;;;6186601;23;20160;-67
2021/08/01 08:23:43;;;;;;;5.67;5.17;;;30.20;99.90;;;;;;6186713;23;20512;-67
2021/08/01 08:26:09;;;;;;;6.23;5.67;;;30.40;99.90;;;;;;6186917;23;20397;-72
2021/08/01 08:28:34;;;;;;;6.87;6.27;;;30.50;99.60;;;;;;6186631;23;20161;-67
2021/08/01 08:31:00;;;;;;;6.43;5.83;;;30.60;98.90;;;;;;6186370;23;20184;-67
2021/08/01 08:33:26;;;;;;;6.40;5.83;;;30.70;98.60;;;;;;6186577;23;20160;-68
2021/08/01 08:35:52;;;;;;;6.20;5.70;;;30.70;98.70;;;;;;6186665;23;20177;-72
2021/08/01 08:38:17;;;;;;;6.10;5.50;;;30.70;98.50;;;;;;6160189;23;20550;-72
2021/08/01 08:40:43;;;;;;;6.87;6.00;;;30.70;99.00;;;;;;6160238;23;20426;-70
2021/08/01 08:43:09;;;;;;;7.20;6.50;;;30.80;99.00;;;;;;6160135;23;20172;-72
2021/08/01 08:45:36;;;;;;;6.90;6.23;;;30.80;98.80;;;;;;6186580;23;20199;-68
2021/08/01 08:48:03;;;;;;;6.40;5.70;;;31.00;98.80;;;;;;6186507;23;20231;-72
2021/08/01 08:50:29;;;;;;;7.00;6.30;;;31.00;99.10;;;;;;6186362;23;20502;-67
2021/08/01 08:53:02;;;;;;;6.90;6.13;;;31.10;98.30;;;;;;6186343;23;20839;-73
2021/08/01 08:55:32;;;;;;;7.23;6.63;;;31.20;98.80;;;;;;6160157;23;20193;-68
2021/08/01 08:58:00;;;;;;;6.20;5.67;;;31.30;97.70;;;;;;6186126;23;20370;-72
2021/08/01 09:00:27;;;;;;;6.57;5.97;;;31.40;97.80;;;;;;6186219;23;20427;-67
2021/08/01 09:02:53;;;;;;;7.53;6.47;;;31.50;97.90;;;;;;6186352;23;20400;-67
2021/08/01 09:05:19;;;;;;;6.63;6.03;;;31.60;98.50;;;;;;6186338;23;20384;-72
2021/08/01 09:07:45;;;;;;;6.43;5.93;;;31.70;98.10;;;;;;6186433;23;20373;-68
2021/08/01 09:10:11;;;;;;;6.20;5.60;;;31.80;97.50;;;;;;6186150;23;20657;-72
2021/08/01 09:12:45;;;;;;;6.80;6.20;;;31.90;97.10;;;;;;6159770;23;20198;-72
2021/08/01 09:15:12;;;;;;;6.50;5.90;;;32.00;97.10;;;;;;6186164;23;20380;-67
2021/08/01 09:17:39;;;;;;;6.13;5.53;;;32.10;96.60;;;;;;6186471;23;20368;-68
2021/08/01 09:20:22;;;;;;;5.27;4.83;;;32.20;96.70;;;;;;6186087;23;20419;-67
2021/08/01 09:23:02;;;;;;;6.13;5.63;;;32.30;96.50;;;;;;6186338;23;20462;-68
2021/08/01 09:25:33;;;;;;;7.80;5.97;;;32.30;96.30;;;;;;6186191;23;20699;-72
2021/08/01 09:28:21;;;;;;;6.63;6.10;;;32.40;95.40;;;;;;6186206;23;20369;-68
2021/08/01 09:31:03;;;;;;;6.07;5.50;;;32.40;95.70;;;;;;6186097;23;20416;-68
2021/08/01 09:33:32;;;;;;;6.60;6.00;;;32.50;95.50;;;;;;6186364;23;20380;-72
2021/08/01 09:36:08;;;;;;;5.90;5.40;;;32.50;95.90;;;;;;6159866;23;20424;-68
2021/08/01 09:38:54;;;;;;;5.87;5.37;;;32.50;95.80;;;;;;6186009;23;20395;-67
2021/08/01 09:41:33;;;;;;;5.40;5.00;;;32.60;95.50;;;;;;6186623;23;20389;-72
2021/08/01 09:44:01;;;;;;;6.90;6.30;;;32.60;95.70;;;;;;6159589;23;20416;-68
2021/08/01 09:46:40;;;;;;;5.87;5.37;;;32.70;95.00;;;;;;6159722;23;20422;-72
2021/08/01 09:49:14;;;;;;;7.63;6.90;;;32.80;95.10;;;;;;6159583;23;20414;-72
2021/08/01 09:51:44;;;;;;;7.23;6.57;;;32.80;94.80;;;;;;6159848;23;20780;-72
2021/08/01 09:54:11;;;;;;;6.43;5.93;;;32.80;94.80;;;;;;6159628;23;20412;-72
2021/08/01 09:56:37;;;;;;;7.07;6.47;;;32.80;95.00;;;;;;6186596;23;20384;-68
2021/08/01 09:59:03;;;;;;;6.87;6.27;;;32.90;95.00;;;;;;6185640;23;20918;-73
2021/08/01 10:01:31;;;;;;;6.90;6.30;;;32.90;95.00;;;;;;6186491;23;20416;-68
2021/08/01 10:03:57;;;;;;;6.83;6.20;;;33.00;95.00;;;;;;6185799;23;20749;-72
2021/08/01 10:06:24;;;;;;;7.20;6.00;;;33.00;95.10;;;;;;6185841;23;20384;-72
2021/08/01 10:08:52;;;;;;;8.50;7.03;;;33.10;95.80;;;;;;6159615;23;20159;-68
2021/08/01 10:11:19;;;;;;;7.20;6.60;;;33.10;95.40;;;;;;6188118;23;20905;-73
2021/08/01 10:13:49;;;;;;;6.80;6.23;;;33.20;95.20;;;;;;6161509;23;20376;-72
2021/08/01 10:16:15;;;;;;;7.90;7.23;;;33.20;94.00;;;;;;6188309;23;20385;-72
2021/08/01 10:18:46;;;;;;;7.60;7.00;;;33.20;93.90;;;;;;6161581;23;20387;-72
2021/08/01 10:21:23;;;;;;;7.57;6.87;;;33.30;94.90;;;;;;6188020;23;20403;-68
2021/08/01 10:23:56;;;;;;;8.00;7.20;;;33.30;94.50;;;;;;6187783;23;20372;-73
2021/08/01 10:26:30;;;;;;;7.73;7.10;;;33.40;94.20;;;;;;6188257;23;20791;-67
2021/08/01 10:28:59;;;;;;;6.83;6.23;;;33.40;93.40;;;;;;6187783;23;20407;-72
2021/08/01 10:31:30;;;;;;;8.07;7.47;;;33.40;93.50;;;;;;6187857;23;20432;-68
2021/08/01 10:34:12;;;;;;;7.90;7.30;;;33.30;92.80;;;;;;6161367;23;20904;-67
2021/08/01 10:36:39;;;;;;;7.30;6.80;;;33.30;92.80;;;;;;6188297;23;20861;-72
2021/08/01 10:39:12;;;;;;;7.10;6.50;;;33.30;93.40;;;;;;6161209;23;20838;-67
2021/08/01 10:41:39;;;;;;;8.07;7.37;;;33.30;92.90;;;;;;6188283;23;20387;-67
2021/08/01 10:44:09;;;;;;;8.43;7.20;;;33.30;93.50;;;;;;6187539;23;20384;-68
2021/08/01 10:46:37;;;;;;;7.80;7.13;;;33.40;93.20;;;;;;6188186;23;20372;-68
2021/08/01 10:49:03;;;;;;;9.03;7.33;;;33.40;93.30;;;;;;6187532;23;20854;-68
2021/08/01 10:51:30;;;;;;;8.73;8.00;;;33.40;93.70;;;;;;6161396;23;20947;-67
2021/08/01 10:54:21;;;;;;;8.57;7.87;;;33.50;93.10;;;;;;6187388;23;20471;-73
2021/08/01 10:57:13;;;;;;;7.73;6.83;;;33.60;93.70;;;;;;6187915;23;20407;-69
2021/08/01 10:59:44;;;;;;;8.27;7.57;;;33.70;92.90;;;;;;6187260;23;20428;-68
2021/08/01 11:02:15;;;;;;;7.80;7.10;;;33.70;92.90;;;;;;6161324;23;20412;-67
2021/08/01 11:04:43;;;;;;;6.93;6.33;;;33.80;92.30;;;;;;6187598;23;20396;-73
2021/08/01 11:07:09;;;;;;;6.50;6.00;;;33.90;90.90;;;;;;6187883;23;20733;-72
2021/08/01 11:09:35;;;;;;;7.07;5.90;;;34.00;91.10;;;;;;6161056;23;20416;-72
2021/08/01 11:12:19;;;;;;;7.07;6.47;;;34.00;91.10;;;;;;6161135;23;20240;-68
2021/08/01 11:14:55;;;;;;;6.87;6.17;;;34.10;90.30;;;;;;6187440;23;20174;-67
2021/08/01 11:17:40;;;;;;;7.47;6.40;;;34.20;89.40;;;;;;6187414;23;20415;-68
2021/08/01 11:20:29;;;;;;;6.70;5.93;;;34.20;90.10;;;;;;6187312;23;20381;-73
2021/08/01 11:22:56;;;;;;;6.57;5.93;;;34.40;90.30;;;;;;6186952;23;20369;-67
2021/08/01 11:25:32;;;;;;;7.87;6.80;;;34.40;88.70;;;;;;6186856;23;20463;-73
2021/08/01 11:28:12;;;;;;;7.03;6.33;;;34.50;90.30;;;;;;6160599;23;20387;-73
2021/08/01 11:30:52;;;;;;;7.00;6.30;;;34.60;90.70;;;;;;6186969;23;20458;-73
2021/08/01 11:33:27;;;;;;;6.53;5.93;;;34.60;90.90;;;;;;6187245;23;20460;-73
2021/08/01 11:36:12;;;;;;;7.47;6.03;;;34.70;90.40;;;;;;6186799;23;20419;-73
2021/08/01 11:38:53;;;;;;;13.67;5.80;;;34.80;90.60;;;;;;6185551;23;20387;-68
2021/08/01 11:44:04;;;;;;;8.27;6.73;;;34.80;90.80;;;;;;6186989;23;20769;-73
2021/08/01 11:46:52;;;;;;;10.40;6.83;;;34.90;90.70;;;;;;6187352;23;20415;-68
2021/08/01 11:49:25;;;;;;;8.00;7.20;;;34.90;90.70;;;;;;6186290;23;20396;-73
2021/08/01 11:51:52;;;;;;;8.30;7.00;;;35.00;91.10;;;;;;6184803;23;20475;-68
2021/08/01 11:54:18;;;;;;;7.70;6.90;;;35.10;90.70;;;;;;6184467;23;20396;-68
2021/08/01 11:56:45;;;;;;;7.77;7.10;;;35.10;90.90;;;;;;6184901;23;20388;-73
2021/08/01 11:59:15;;;;;;;7.97;7.10;;;35.10;90.80;;;;;;6184873;23;20527;-72
2021/08/01 12:01:41;;;;;;;7.60;7.00;;;35.10;91.00;;;;;;6159684;23;20408;-68
2021/08/01 12:04:08;;;;;;;6.73;6.23;;;35.10;90.60;;;;;;6186522;23;20388;-72
2021/08/01 12:06:36;;;;;;;7.03;6.40;;;35.10;91.00;;;;;;6154398;23;20448;-69
2021/08/01 12:09:24;;;;;;;8.57;7.73;;;35.20;91.10;;;;;;6179548;23;20396;-71
2021/08/01 12:11:55;;;;;;;7.80;7.10;;;35.20;90.90;;;;;;6186940;23;20494;-68
2021/08/01 12:14:24;;;;;;;6.83;6.13;;;35.20;90.30;;;;;;6184748;23;20439;-73
2021/08/01 12:16:53;;;;;;;8.50;6.73;;;35.20;89.50;;;;;;6160139;23;20412;-72
2021/08/01 12:19:23;;;;;;;6.50;6.00;;;35.10;88.00;;;;;;6186303;23;20475;-73
2021/08/01 12:21:52;;;;;;;6.20;5.70;;;35.10;88.70;;;;;;6186638;23;20687;-73
2021/08/01 12:24:38;;;;;;;7.90;6.03;;;35.10;89.60;;;;;;6184258;23;20395;-68
2021/08/01 12:27:07;;;;;;;7.80;5.80;;;35.00;87.30;;;;;;6184559;23;20415;-71
2021/08/01 12:29:42;;;;;;;5.80;5.30;;;34.90;86.60;;;;;;6183992;23;20783;-72
2021/08/01 12:32:28;;;;;;;6.60;5.87;;;34.90;85.90;;;;;;6183832;23;20820;-73
2021/08/01 12:35:08;;;;;;;9.57;5.60;;;34.80;86.50;;;;;;6183438;23;20396;-73
2021/08/01 12:37:49;;;;;;;7.43;6.73;;;34.60;86.80;;;;;;6183910;23;20364;-72
2021/08/01 12:40:29;;;;;;;7.70;6.90;;;34.60;86.80;;;;;;6185845;23;20396;-72
2021/08/01 12:42:57;;;;;;;9.40;6.00;;;34.50;85.00;;;;;;6186510;23;20714;-72
2021/08/01 12:45:39;;;;;;;20.00;6.63;;;34.40;85.50;;;;;;6185998;23;20724;-72
2021/08/01 12:48:07;;;;;;;26.53;9.80;;;34.20;89.40;;;;;;6159489;23;20373;-68
2021/08/01 12:50:34;;;;;;;16.53;6.77;;;33.70;90.00;;;;;;6186173;23;20408;-67
2021/08/01 12:53:01;;;;;;;13.10;7.50;;;33.10;91.00;;;;;;6159926;23;20913;-72
2021/08/01 12:55:27;;;;;;;18.40;7.57;;;32.60;92.00;;;;;;6186348;23;20389;-67
2021/08/01 12:58:05;;;;;;;14.37;6.90;;;32.30;92.90;;;;;;6186378;23;20376;-68
2021/08/01 13:00:32;;;;;;;14.20;7.13;;;31.90;93.50;;;;;;6185661;23;20428;-67